Accueil
METAR-TAF:

METAR-TAF

Aéroports :

Abidjan, Côte d'Ivoire

Aéroport international Félix-Houphouët-Boigny

latitude: 05-15N, longitude: 003-56W, altitude: 7 m

Observation

Le bulletin a été fait il y a 38 minutes, à 04:30 UTC
Vent 1 kt de direction variable
Température 24°C
Humidité 100%
Pression 1012 hPa
Visibilité: 8000 m
Nuages épars à une hauteur de 1200 ft

METAR: DIAP 260430Z VRB01KT 8000 SCT012 24/24 Q1012 NOSIG

Heure: 05:08 (05:08 UTC)


TAF: absent

Observations et prévisions météorologiques de plus de 4000 aéroports (messages METAR et TAF).

Les stations disponibles sont représentées par des disques jaunes et rouges sur la carte.

Passer la souris dessus pour voir le nom de la station.

Cliquer dessus pour voir les observations et prévisions météorologiques.

Pour changer de carte: cliquez sur les boutons verts avec une croix noire pour zoomer, sur le bouton vert avec un tiret pour effectuer un zoom arrière, ou sur les flèches vertes pour les cartes adjacentes.


METAR-TAF: